Time;durP1;ratioP1;P1;durP2;ratioP2;P2;SDS_P1;SDS_P2;PMS_P1;PMS_P2;Temp;Humidity;BMP_temperature;BMP_pressure;BME280_temperature;BME280_humidity;BME280_pressure;Samples;Min_cycle;Max_cycle;Signal;HPM_P1;HPM_P2
2020/12/20 00:00:14;;;;;;;8.60;5.28;;;10.80;72.50;;;;;;2616657;52;20918;-72
2020/12/20 00:02:49;;;;;;;10.40;5.85;;;10.90;73.30;;;;;;2617332;52;21015;-72
2020/12/20 00:05:17;;;;;;;10.18;6.25;;;10.90;72.60;;;;;;2354716;53;21022;-72
2020/12/20 00:07:45;;;;;;;9.35;5.93;;;10.90;73.40;;;;;;2615481;52;20934;-72
2020/12/20 00:10:13;;;;;;;10.73;6.10;;;10.90;72.60;;;;;;2366086;53;21502;-72
2020/12/20 00:12:39;;;;;;;8.55;5.37;;;10.90;72.50;;;;;;2615152;52;21025;-72
2020/12/20 00:15:06;;;;;;;10.50;6.22;;;10.90;72.40;;;;;;2617415;52;21001;-72
2020/12/20 00:17:32;;;;;;;9.25;5.57;;;10.90;72.50;;;;;;2371927;53;21484;-72
2020/12/20 00:19:59;;;;;;;9.07;6.55;;;10.90;72.50;;;;;;2357930;53;20933;-72
2020/12/20 00:22:31;;;;;;;9.10;5.50;;;10.90;72.50;;;;;;2612114;52;21852;-72
2020/12/20 00:24:58;;;;;;;8.05;5.35;;;10.90;72.50;;;;;;2366429;53;20939;-72
2020/12/20 00:27:25;;;;;;;8.85;5.05;;;10.90;72.40;;;;;;2616837;52;21529;-72
2020/12/20 00:29:52;;;;;;;8.60;5.37;;;10.90;72.40;;;;;;2366391;53;20939;-73
2020/12/20 00:32:19;;;;;;;8.27;5.07;;;10.90;72.40;;;;;;2617462;52;21052;-72
2020/12/20 00:35:32;;;;;;;7.07;4.80;;;10.90;72.40;;;;;;2616215;52;21170;-72
2020/12/20 00:37:59;;;;;;;;;;;10.90;72.00;;;;;;2621615;52;21391;-72
2020/12/20 00:40:26;;;;;;;7.65;4.32;;;10.90;71.60;;;;;;2612357;52;20339;-72
2020/12/20 00:42:58;;;;;;;7.50;4.72;;;11.00;72.40;;;;;;2361065;53;21062;-72
2020/12/20 00:45:25;;;;;;;8.85;5.15;;;10.90;72.20;;;;;;2367892;53;21006;-72
2020/12/20 00:47:51;;;;;;;8.45;5.05;;;10.90;72.40;;;;;;2617834;52;20914;-72
2020/12/20 00:50:22;;;;;;;8.55;5.45;;;10.90;72.40;;;;;;2368145;53;20955;-72
2020/12/20 00:52:49;;;;;;;7.78;5.25;;;10.90;72.50;;;;;;2598102;52;21077;-72
2020/12/20 00:55:15;;;;;;;8.88;5.37;;;10.90;72.60;;;;;;2369747;53;21309;-72
2020/12/20 00:57:42;;;;;;;8.85;5.78;;;10.90;72.60;;;;;;2611866;52;21021;-72
2020/12/20 01:00:09;;;;;;;8.52;5.65;;;10.90;72.50;;;;;;2367114;53;21083;-72
2020/12/20 01:02:36;;;;;;;9.27;5.75;;;10.90;72.50;;;;;;2612839;52;20952;-72
2020/12/20 01:05:02;;;;;;;8.95;5.82;;;10.90;72.30;;;;;;2365757;53;21002;-72
2020/12/20 01:07:32;;;;;;;8.18;5.28;;;10.90;72.20;;;;;;2353268;53;21856;-72
2020/12/20 01:09:59;;;;;;;10.07;5.82;;;10.90;72.20;;;;;;2330051;54;20901;-72
2020/12/20 01:12:26;;;;;;;8.90;5.18;;;10.90;72.30;;;;;;2622859;52;20933;-72
2020/12/20 01:14:52;;;;;;;8.32;4.72;;;10.90;72.40;;;;;;2371388;53;20972;-72
2020/12/20 01:17:19;;;;;;;8.02;4.72;;;10.90;72.40;;;;;;2344620;53;21896;-72
2020/12/20 01:19:45;;;;;;;8.63;5.00;;;10.90;72.50;;;;;;2588818;52;20908;-72
2020/12/20 01:22:11;;;;;;;8.30;5.25;;;10.90;72.50;;;;;;2360825;53;20986;-72
2020/12/20 01:24:38;;;;;;;8.07;4.93;;;10.90;72.50;;;;;;2623490;52;21572;-72
2020/12/20 01:27:05;;;;;;;8.05;5.60;;;10.90;72.60;;;;;;2370671;54;21070;-72
2020/12/20 01:29:31;;;;;;;8.20;5.40;;;10.90;72.60;;;;;;2371589;54;20949;-72
2020/12/20 01:31:58;;;;;;;7.15;4.75;;;10.90;72.60;;;;;;2371186;54;20962;-72
2020/12/20 01:34:30;;;;;;;8.02;5.20;;;10.90;72.60;;;;;;2622127;52;21038;-72
2020/12/20 01:36:57;;;;;;;6.97;3.97;;;10.90;72.50;;;;;;2592043;52;20961;-72
2020/12/20 01:39:27;;;;;;;7.85;4.60;;;10.90;72.50;;;;;;2351140;53;21004;-72
2020/12/20 01:41:56;;;;;;;7.93;4.55;;;10.90;72.50;;;;;;2368573;53;21533;-72
2020/12/20 01:44:22;;;;;;;7.55;4.60;;;10.90;72.60;;;;;;2348341;53;20930;-72
2020/12/20 01:46:50;;;;;;;9.02;4.37;;;10.90;72.60;;;;;;2623598;52;20973;-72
2020/12/20 01:49:16;;;;;;;7.75;5.30;;;10.90;72.50;;;;;;2365622;53;21003;-72
2020/12/20 01:51:46;;;;;;;7.00;3.95;;;10.90;72.50;;;;;;2354898;53;20989;-72
2020/12/20 01:54:13;;;;;;;7.40;4.47;;;10.90;72.40;;;;;;2585746;52;20957;-72
2020/12/20 01:56:40;;;;;;;8.57;4.18;;;10.90;72.40;;;;;;2612723;52;21532;-72
2020/12/20 01:59:07;;;;;;;8.65;4.85;;;10.90;72.40;;;;;;2342450;53;21024;-72
2020/12/20 02:01:34;;;;;;;9.35;5.50;;;10.90;72.40;;;;;;2347234;54;21694;-72
2020/12/20 02:04:01;;;;;;;6.90;4.12;;;10.90;72.40;;;;;;2369109;53;21044;-72
2020/12/20 02:06:28;;;;;;;10.55;5.37;;;10.90;72.30;;;;;;2596546;52;20978;-73
2020/12/20 02:08:54;;;;;;;7.50;4.90;;;10.90;72.20;;;;;;2623897;52;20938;-72
2020/12/20 02:11:21;;;;;;;8.18;4.82;;;10.90;72.10;;;;;;2623621;52;20989;-73
2020/12/20 02:13:49;;;;;;;7.97;4.75;;;10.90;72.00;;;;;;2349490;53;21414;-72
2020/12/20 02:16:17;;;;;;;6.43;4.28;;;10.80;72.60;;;;;;2353772;53;20978;-72
2020/12/20 02:18:44;;;;;;;7.68;5.03;;;10.80;72.00;;;;;;2372908;53;21277;-72
2020/12/20 02:21:21;;;;;;;7.82;4.90;;;10.80;72.10;;;;;;2346860;53;21470;-72
2020/12/20 02:23:48;;;;;;;8.43;4.93;;;10.80;72.10;;;;;;2366282;53;21072;-72
2020/12/20 02:26:24;;;;;;;5.72;3.95;;;10.80;72.20;;;;;;2583847;53;21541;-72
2020/12/20 02:29:03;;;;;;;7.68;4.07;;;10.80;72.10;;;;;;2606756;52;21061;-72
2020/12/20 02:31:31;;;;;;;9.57;4.37;;;10.80;72.30;;;;;;2370390;53;20918;-72
2020/12/20 02:34:01;;;;;;;7.45;5.03;;;10.80;72.40;;;;;;2357409;53;21000;-72
2020/12/20 02:36:28;;;;;;;8.82;4.68;;;10.60;72.20;;;;;;2361937;53;21748;-72
2020/12/20 02:38:54;;;;;;;8.32;4.72;;;10.80;72.60;;;;;;2371221;54;20933;-72
2020/12/20 02:41:21;;;;;;;6.93;4.37;;;10.80;72.60;;;;;;2622750;52;21903;-72
2020/12/20 02:43:48;;;;;;;9.95;5.03;;;10.80;72.60;;;;;;2370956;54;21494;-72
2020/12/20 02:46:16;;;;;;;8.90;5.18;;;10.80;73.30;;;;;;2370501;54;20917;-72
2020/12/20 02:48:45;;;;;;;8.05;4.37;;;10.80;72.60;;;;;;2623715;52;20930;-72
2020/12/20 02:51:15;;;;;;;7.50;4.20;;;10.80;72.60;;;;;;2370879;54;20930;-72
2020/12/20 02:53:45;;;;;;;8.45;5.40;;;10.80;72.60;;;;;;2347547;53;21021;-72
2020/12/20 02:56:13;;;;;;;7.00;4.37;;;10.80;72.60;;;;;;2576126;53;20937;-71
2020/12/20 02:58:50;;;;;;;7.35;4.80;;;10.80;72.50;;;;;;2349065;53;20949;-71
2020/12/20 03:01:17;;;;;;;7.65;4.93;;;10.90;72.50;;;;;;2372930;54;20970;-72
2020/12/20 03:03:48;;;;;;;8.55;4.82;;;10.80;72.40;;;;;;2344885;53;20926;-74
2020/12/20 03:06:15;;;;;;;7.00;4.68;;;10.90;72.60;;;;;;2599319;52;21001;-72
2020/12/20 03:08:42;;;;;;;6.50;4.12;;;10.80;72.40;;;;;;2364877;53;20978;-72
2020/12/20 03:11:08;;;;;;;7.30;4.25;;;10.80;72.30;;;;;;2616955;52;20922;-72
2020/12/20 03:13:35;;;;;;;8.10;4.70;;;10.80;72.30;;;;;;2360426;53;25504;-72
2020/12/20 03:16:02;;;;;;;6.87;4.18;;;10.80;72.30;;;;;;2593495;52;21778;-72
2020/12/20 03:18:29;;;;;;;6.87;4.22;;;10.80;72.30;;;;;;2591620;52;20934;-72
2020/12/20 03:20:56;;;;;;;6.70;4.35;;;10.80;72.20;;;;;;2593124;52;21538;-72
2020/12/20 03:23:23;;;;;;;7.70;4.45;;;10.80;72.20;;;;;;2367632;53;20996;-72
2020/12/20 03:25:49;;;;;;;6.75;4.47;;;10.80;72.10;;;;;;2599112;52;20966;-72
2020/12/20 03:28:15;;;;;;;9.25;4.68;;;10.80;72.10;;;;;;2371631;54;20990;-72
2020/12/20 03:30:42;;;;;;;7.65;4.62;;;10.80;72.20;;;;;;2355856;53;20929;-72
2020/12/20 03:33:12;;;;;;;6.32;3.95;;;10.80;72.20;;;;;;2614202;52;20993;-72
2020/12/20 03:35:39;;;;;;;7.82;4.05;;;10.70;72.10;;;;;;2623959;52;21063;-72
2020/12/20 03:38:05;;;;;;;6.85;4.50;;;10.70;72.20;;;;;;2370876;54;20941;-72
2020/12/20 03:40:32;;;;;;;8.07;5.07;;;10.70;72.10;;;;;;2349127;53;21006;-72
2020/12/20 03:42:58;;;;;;;7.95;5.12;;;10.70;72.10;;;;;;2372176;54;20934;-72
2020/12/20 03:45:25;;;;;;;9.50;5.15;;;10.70;72.00;;;;;;2370581;53;20986;-72
2020/12/20 03:47:52;;;;;;;7.00;4.57;;;10.70;72.00;;;;;;2350441;53;20933;-72
2020/12/20 03:50:18;;;;;;;7.80;4.43;;;10.70;72.00;;;;;;2600387;52;21024;-72
2020/12/20 03:52:45;;;;;;;8.20;4.40;;;10.70;72.10;;;;;;2356308;53;20946;-72
2020/12/20 03:55:12;;;;;;;7.25;4.62;;;10.70;72.10;;;;;;2369719;53;20934;-72
2020/12/20 03:57:38;;;;;;;7.00;4.43;;;10.70;72.20;;;;;;2371490;53;21490;-72
2020/12/20 04:00:05;;;;;;;6.93;4.07;;;10.70;72.30;;;;;;2590241;52;21831;-72
2020/12/20 04:02:32;;;;;;;6.75;4.00;;;10.70;72.30;;;;;;2623884;52;20951;-72
2020/12/20 04:04:59;;;;;;;6.40;4.30;;;10.70;72.40;;;;;;2597454;52;21498;-72
2020/12/20 04:07:25;;;;;;;6.62;3.95;;;10.70;72.50;;;;;;2352323;53;21371;-72
2020/12/20 04:09:53;;;;;;;7.25;4.03;;;10.70;72.50;;;;;;2607189;52;21450;-72
2020/12/20 04:12:20;;;;;;;6.40;3.78;;;10.70;72.60;;;;;;2357885;53;21091;-72
2020/12/20 04:14:47;;;;;;;7.55;4.22;;;10.70;72.60;;;;;;2584313;53;20961;-72
2020/12/20 04:17:13;;;;;;;6.80;4.05;;;10.70;73.20;;;;;;2358384;53;21026;-72
2020/12/20 04:19:39;;;;;;;6.55;4.25;;;10.70;72.50;;;;;;2618936;52;21005;-71
2020/12/20 04:22:06;;;;;;;5.60;3.60;;;10.70;72.50;;;;;;2347372;53;20934;-72
2020/12/20 04:24:33;;;;;;;7.22;4.15;;;10.70;72.50;;;;;;2623965;52;21001;-72
2020/12/20 04:26:59;;;;;;;6.25;3.72;;;10.70;72.40;;;;;;2374843;53;20958;-72
2020/12/20 04:29:26;;;;;;;6.50;4.12;;;10.70;72.40;;;;;;2584061;52;20944;-72
2020/12/20 04:31:55;;;;;;;7.75;4.32;;;10.70;72.50;;;;;;2592658;52;21874;-71
2020/12/20 04:34:22;;;;;;;7.95;4.80;;;10.70;72.40;;;;;;2591175;52;21024;-72
2020/12/20 04:36:48;;;;;;;6.18;4.22;;;10.70;72.40;;;;;;2363985;53;21024;-72
2020/12/20 04:39:18;;;;;;;6.45;4.45;;;10.70;72.50;;;;;;2622792;52;21009;-71
2020/12/20 04:41:44;;;;;;;7.00;4.18;;;10.70;72.40;;;;;;2347462;53;20997;-72
2020/12/20 04:44:11;;;;;;;7.25;4.50;;;10.70;72.40;;;;;;2594434;52;20996;-72
2020/12/20 04:46:37;;;;;;;6.93;4.55;;;10.70;72.30;;;;;;2591606;52;20929;-72
2020/12/20 04:49:04;;;;;;;6.50;4.35;;;10.70;72.40;;;;;;2616755;52;20941;-71
2020/12/20 04:51:38;;;;;;;7.15;3.87;;;10.60;72.20;;;;;;2347221;53;20965;-72
2020/12/20 04:54:04;;;;;;;5.72;3.92;;;10.60;72.20;;;;;;2614226;52;21024;-72
2020/12/20 04:56:30;;;;;;;5.18;3.67;;;10.60;72.20;;;;;;2348582;53;21014;-72
2020/12/20 04:58:57;;;;;;;6.78;4.47;;;10.60;72.20;;;;;;2367772;53;21649;-72
2020/12/20 05:01:23;;;;;;;5.97;3.67;;;10.60;72.10;;;;;;2355304;53;21001;-73
2020/12/20 05:03:50;;;;;;;7.60;4.03;;;10.60;72.10;;;;;;2364012;53;20998;-73
2020/12/20 05:06:17;;;;;;;6.93;4.28;;;10.60;72.20;;;;;;2371053;53;20986;-72
2020/12/20 05:08:45;;;;;;;6.10;4.20;;;10.60;72.20;;;;;;2371872;54;20937;-72
2020/12/20 05:11:31;;;;;;;5.72;3.60;;;10.50;72.10;;;;;;2346603;53;21060;-73
2020/12/20 05:13:57;;;;;;;5.47;3.67;;;10.50;72.00;;;;;;2371635;54;20975;-73
2020/12/20 05:16:31;;;;;;;5.93;3.83;;;10.50;72.10;;;;;;2623117;52;20994;-72
2020/12/20 05:19:00;;;;;;;8.85;4.87;;;10.50;72.10;;;;;;2344336;54;21068;-73
2020/12/20 05:21:27;;;;;;;7.05;4.50;;;10.50;72.30;;;;;;2330581;54;21005;-73
2020/12/20 05:23:54;;;;;;;6.78;4.22;;;10.50;72.30;;;;;;2371560;54;21839;-72
2020/12/20 05:26:30;;;;;;;5.82;3.62;;;10.50;72.30;;;;;;2355432;53;20964;-73
2020/12/20 05:29:25;;;;;;;5.70;3.75;;;10.50;72.30;;;;;;2558074;52;20981;-73
2020/12/20 05:31:58;;;;;;;6.55;3.53;;;10.50;72.10;;;;;;2368261;53;21875;-73
2020/12/20 05:34:25;;;;;;;7.80;4.82;;;10.50;72.40;;;;;;2355590;53;20988;-73
2020/12/20 05:36:51;;;;;;;6.65;3.78;;;10.50;72.40;;;;;;2599919;52;20941;-72
2020/12/20 05:39:18;;;;;;;6.65;4.28;;;10.50;72.40;;;;;;2347135;53;21043;-73
2020/12/20 05:41:48;;;;;;;7.10;4.15;;;10.50;72.40;;;;;;2618621;52;21001;-73
2020/12/20 05:44:23;;;;;;;5.85;3.37;;;10.40;72.30;;;;;;2351399;53;20972;-73
2020/12/20 05:46:50;;;;;;;6.57;3.55;;;10.50;72.40;;;;;;2591277;52;21064;-73
2020/12/20 05:49:20;;;;;;;8.35;4.32;;;10.40;72.40;;;;;;2348611;53;20940;-73
2020/12/20 05:52:06;;;;;;;5.82;3.55;;;10.40;72.30;;;;;;2362178;53;21006;-73
2020/12/20 05:54:54;;;;;;;6.20;3.72;;;10.40;72.20;;;;;;2357691;53;20964;-73
2020/12/20 05:57:21;;;;;;;5.30;3.20;;;10.50;72.30;;;;;;2339517;53;21009;-73
2020/12/20 05:59:48;;;;;;;6.22;4.18;;;10.40;72.40;;;;;;2611944;52;21006;-73
2020/12/20 06:02:17;;;;;;;5.70;3.53;;;10.40;72.50;;;;;;2604073;52;20949;-73
2020/12/20 06:04:51;;;;;;;6.75;3.80;;;10.40;72.50;;;;;;2593112;52;20967;-73
2020/12/20 06:07:17;;;;;;;7.18;4.00;;;10.40;72.60;;;;;;2589915;52;20939;-73
2020/12/20 06:09:55;;;;;;;7.07;4.25;;;10.50;72.80;;;;;;2348021;53;21692;-73
2020/12/20 06:12:31;;;;;;;6.55;4.28;;;10.50;72.60;;;;;;2623768;52;20954;-73
2020/12/20 06:14:58;;;;;;;7.20;4.78;;;10.50;72.60;;;;;;2356809;53;21433;-73
2020/12/20 06:17:25;;;;;;;7.45;4.43;;;10.50;72.60;;;;;;2342541;53;20945;-73
2020/12/20 06:20:04;;;;;;;8.10;4.12;;;10.50;72.70;;;;;;2369141;53;21057;-73
2020/12/20 06:22:39;;;;;;;7.05;4.72;;;10.50;72.60;;;;;;2599616;52;21518;-73
2020/12/20 06:25:06;;;;;;;6.57;4.47;;;10.50;72.60;;;;;;2624151;52;20961;-73
2020/12/20 06:27:34;;;;;;;7.78;4.87;;;10.50;72.50;;;;;;2583537;53;21009;-73
2020/12/20 06:30:07;;;;;;;8.00;5.28;;;10.50;72.50;;;;;;2583963;53;20901;-73
2020/12/20 06:32:52;;;;;;;6.87;4.85;;;10.50;72.50;;;;;;2540900;54;21042;-73
2020/12/20 06:35:30;;;;;;;6.93;4.18;;;10.50;72.60;;;;;;2560033;53;21068;-73
2020/12/20 06:37:56;;;;;;;5.60;3.67;;;10.50;72.50;;;;;;2583345;53;20968;-73
2020/12/20 06:41:35;;;;;;;7.40;4.55;;;10.50;72.50;;;;;;2317492;53;21405;-73
2020/12/20 06:44:14;;;;;;;5.93;3.50;;;10.40;71.90;;;;;;2338406;53;20952;-73
2020/12/20 06:46:41;;;;;;;6.80;4.37;;;10.40;72.10;;;;;;2358901;53;21052;-73
2020/12/20 06:49:37;;;;;;;7.10;4.45;;;10.40;72.10;;;;;;2345039;53;20944;-73
2020/12/20 06:53:56;;;;;;;7.05;4.30;;;10.40;71.90;;;;;;2335162;53;20943;-73
2020/12/20 06:56:23;;;;;;;6.95;4.55;;;10.30;71.70;;;;;;2583615;52;21536;-73
2020/12/20 06:58:51;;;;;;;10.38;6.60;;;10.40;72.10;;;;;;2553615;53;21007;-72
2020/12/20 07:01:39;;;;;;;10.27;6.28;;;10.30;72.10;;;;;;2322268;53;20971;-73
2020/12/20 07:04:14;;;;;;;7.78;5.15;;;10.30;72.10;;;;;;2593349;52;20980;-73
2020/12/20 07:06:41;;;;;;;8.75;5.25;;;10.30;72.20;;;;;;2593814;52;20941;-73
2020/12/20 07:09:08;;;;;;;6.90;4.68;;;10.30;72.50;;;;;;2345497;53;20916;-73
2020/12/20 07:11:51;;;;;;;7.72;5.18;;;10.30;72.60;;;;;;2344653;53;20957;-73
2020/12/20 07:14:21;;;;;;;7.97;4.93;;;10.30;72.60;;;;;;2584060;52;20996;-73
2020/12/20 07:16:48;;;;;;;11.70;5.55;;;10.30;72.60;;;;;;2341066;53;21411;-73
2020/12/20 07:19:24;;;;;;;8.15;5.20;;;10.30;72.60;;;;;;2362752;53;21422;-73
2020/12/20 07:21:59;;;;;;;9.75;5.87;;;10.30;72.40;;;;;;2348932;53;20932;-73
2020/12/20 07:24:26;;;;;;;9.45;6.40;;;10.30;72.30;;;;;;2366683;54;20921;-73
2020/12/20 07:26:59;;;;;;;8.60;5.65;;;10.30;72.40;;;;;;2345029;53;20997;-73
2020/12/20 07:29:25;;;;;;;;;;;10.30;72.40;;;;;;2611967;52;20981;-73
2020/12/20 07:31:53;;;;;;;8.13;4.60;;;10.30;72.00;;;;;;2355755;53;20441;-73
2020/12/20 07:34:19;;;;;;;6.70;4.60;;;10.30;72.50;;;;;;2338319;53;21008;-72
2020/12/20 07:36:46;;;;;;;8.00;4.87;;;10.30;72.60;;;;;;2618099;52;20965;-73
2020/12/20 07:39:13;;;;;;;6.57;4.37;;;10.20;72.60;;;;;;2610586;52;20965;-73
2020/12/20 07:41:39;;;;;;;6.85;4.40;;;10.30;72.80;;;;;;2345829;53;21870;-72
2020/12/20 07:44:08;;;;;;;6.45;4.18;;;10.30;72.80;;;;;;2613224;52;21032;-73
2020/12/20 07:46:35;;;;;;;7.35;4.75;;;10.30;72.90;;;;;;2342508;53;20953;-73
2020/12/20 07:49:04;;;;;;;7.47;4.32;;;10.30;72.90;;;;;;2592903;52;21047;-73
2020/12/20 07:51:30;;;;;;;7.60;4.95;;;10.30;73.00;;;;;;2348149;53;21001;-73
2020/12/20 07:53:59;;;;;;;7.15;4.87;;;10.30;72.90;;;;;;2351313;53;21483;-73
2020/12/20 07:56:32;;;;;;;8.38;5.15;;;10.30;73.00;;;;;;2342822;53;20938;-73
2020/12/20 07:59:09;;;;;;;6.95;4.22;;;10.30;72.90;;;;;;2348187;53;21709;-73
2020/12/20 08:01:36;;;;;;;6.55;3.80;;;10.30;73.00;;;;;;2341443;53;21792;-73
2020/12/20 08:04:22;;;;;;;7.62;4.93;;;10.30;73.20;;;;;;2590878;52;21085;-73
2020/12/20 08:06:50;;;;;;;7.43;4.70;;;10.40;73.40;;;;;;2301800;54;20945;-73
2020/12/20 08:09:24;;;;;;;7.10;4.53;;;10.40;73.40;;;;;;2583999;53;20909;-73
2020/12/20 08:11:51;;;;;;;8.38;4.80;;;10.40;73.40;;;;;;2339570;53;20996;-73
2020/12/20 08:14:18;;;;;;;8.63;5.00;;;10.50;73.50;;;;;;2327737;53;20990;-73
2020/12/20 08:16:52;;;;;;;8.02;5.00;;;10.40;73.30;;;;;;2323241;53;21103;-73
2020/12/20 08:19:26;;;;;;;7.12;4.37;;;10.50;73.40;;;;;;2545681;53;20952;-73
2020/12/20 08:22:13;;;;;;;7.80;4.75;;;10.50;73.30;;;;;;2608697;52;21560;-73
2020/12/20 08:24:40;;;;;;;8.48;4.62;;;10.50;73.30;;;;;;2342303;53;21841;-73
2020/12/20 08:27:42;;;;;;;8.60;5.95;;;10.50;73.50;;;;;;2602406;53;20938;-73
2020/12/20 08:30:10;;;;;;;11.52;7.25;;;10.50;73.10;;;;;;2366238;54;20997;-73
2020/12/20 08:32:40;;;;;;;10.07;6.97;;;10.60;73.40;;;;;;2613789;52;20952;-73
2020/12/20 08:35:21;;;;;;;11.25;6.93;;;10.60;73.30;;;;;;2578643;52;20945;-73
2020/12/20 08:37:54;;;;;;;11.70;7.28;;;10.60;73.10;;;;;;2352920;53;21292;-72
2020/12/20 08:40:21;;;;;;;10.18;6.47;;;10.60;73.10;;;;;;2605590;53;21517;-73
2020/12/20 08:42:48;;;;;;;8.57;6.35;;;10.60;73.20;;;;;;2364976;53;21000;-73
2020/12/20 08:45:18;;;;;;;11.85;8.20;;;10.60;73.40;;;;;;2343751;53;21831;-73
2020/12/20 08:47:46;;;;;;;10.60;7.18;;;10.60;73.60;;;;;;2366067;54;21016;-73
2020/12/20 08:50:13;;;;;;;10.10;6.37;;;10.60;73.80;;;;;;2602996;52;21505;-74
2020/12/20 08:52:40;;;;;;;11.85;8.02;;;10.60;73.90;;;;;;2354632;53;20982;-73
2020/12/20 08:55:07;;;;;;;13.10;9.55;;;10.60;73.90;;;;;;2595279;52;20972;-73
2020/12/20 08:57:34;;;;;;;13.20;9.00;;;10.70;74.00;;;;;;2585924;52;21545;-73
2020/12/20 09:00:08;;;;;;;11.85;7.78;;;10.70;74.10;;;;;;2603163;52;21020;-73
2020/12/20 09:02:34;;;;;;;10.38;6.95;;;10.70;74.10;;;;;;2583274;52;20975;-73
2020/12/20 09:05:11;;;;;;;9.88;6.47;;;10.80;74.30;;;;;;2354455;53;21104;-74
2020/12/20 09:07:40;;;;;;;8.38;5.65;;;10.80;74.30;;;;;;2617926;52;20937;-73
2020/12/20 09:10:12;;;;;;;6.68;4.80;;;10.80;74.20;;;;;;2617243;52;20981;-74
2020/12/20 09:12:49;;;;;;;10.73;7.18;;;10.90;74.30;;;;;;2365273;54;20936;-73
2020/12/20 09:15:16;;;;;;;14.32;9.93;;;10.90;74.20;;;;;;2584624;52;21029;-73
2020/12/20 09:17:44;;;;;;;12.23;8.80;;;10.90;74.50;;;;;;2364607;54;21691;-74
2020/12/20 09:20:12;;;;;;;15.40;8.38;;;11.00;74.70;;;;;;2614686;52;21754;-73
2020/12/20 09:22:56;;;;;;;12.55;8.85;;;11.00;74.90;;;;;;2578350;52;21422;-73
2020/12/20 09:25:58;;;;;;;15.45;8.80;;;11.10;75.00;;;;;;2598064;53;21402;-73
2020/12/20 09:28:26;;;;;;;12.65;7.47;;;11.20;74.70;;;;;;2352704;53;20937;-73
2020/12/20 09:30:54;;;;;;;10.07;6.90;;;11.20;75.00;;;;;;2617538;52;20973;-74
2020/12/20 09:33:28;;;;;;;11.05;7.57;;;11.20;75.00;;;;;;2365838;54;20930;-74
2020/12/20 09:36:08;;;;;;;13.45;8.00;;;11.30;75.20;;;;;;2544494;53;21010;-73
2020/12/20 09:38:45;;;;;;;11.45;7.37;;;11.40;75.00;;;;;;2332700;53;21418;-74
2020/12/20 09:41:13;;;;;;;12.15;7.43;;;11.40;74.90;;;;;;2323277;54;21765;-73
2020/12/20 09:43:42;;;;;;;10.85;7.57;;;11.40;74.90;;;;;;2333660;53;21365;-74
2020/12/20 09:46:21;;;;;;;11.70;7.30;;;11.50;75.00;;;;;;2548958;53;20979;-73
2020/12/20 09:48:48;;;;;;;12.85;7.82;;;11.50;75.00;;;;;;2571358;53;20961;-73
2020/12/20 09:51:16;;;;;;;13.98;7.85;;;11.60;75.20;;;;;;2337315;53;21464;-73
2020/12/20 09:53:43;;;;;;;11.95;7.07;;;11.60;75.30;;;;;;2339979;53;21021;-73
2020/12/20 09:56:09;;;;;;;10.07;6.72;;;11.70;75.40;;;;;;2338167;53;20958;-74
2020/12/20 09:58:39;;;;;;;9.75;7.00;;;11.70;75.70;;;;;;2340468;53;20959;-73
2020/12/20 10:01:05;;;;;;;13.68;8.65;;;11.80;75.80;;;;;;2544020;53;21151;-74
2020/12/20 10:03:32;;;;;;;18.10;10.45;;;11.90;76.00;;;;;;2345243;54;21596;-73
2020/12/20 10:05:59;;;;;;;17.20;10.95;;;11.90;75.90;;;;;;2546828;53;20976;-73
2020/12/20 10:08:26;;;;;;;16.50;10.95;;;12.00;75.90;;;;;;2348713;53;20922;-73
2020/12/20 10:10:56;;;;;;;14.75;9.50;;;12.00;75.70;;;;;;2584438;52;21030;-73
2020/12/20 10:13:22;;;;;;;14.32;9.65;;;12.10;75.60;;;;;;2335141;53;21068;-74
2020/12/20 10:15:49;;;;;;;11.77;8.32;;;12.10;75.60;;;;;;2334585;54;20940;-74
2020/12/20 10:18:16;;;;;;;12.27;8.65;;;12.30;75.70;;;;;;2586887;53;20972;-74
2020/12/20 10:20:42;;;;;;;14.00;9.27;;;12.30;75.60;;;;;;2587221;52;20946;-73
2020/12/20 10:23:09;;;;;;;9.90;7.62;;;12.30;75.40;;;;;;2579714;52;20984;-74
2020/12/20 10:25:35;;;;;;;14.70;8.07;;;12.40;75.40;;;;;;2582893;53;21761;-73
2020/12/20 10:28:03;;;;;;;10.63;7.57;;;12.40;75.20;;;;;;2343604;53;21469;-74
2020/12/20 10:30:33;;;;;;;10.57;8.15;;;12.40;74.90;;;;;;2557423;53;21087;-74
2020/12/20 10:33:00;;;;;;;10.82;7.53;;;12.50;74.80;;;;;;2335498;53;21042;-73
2020/12/20 10:35:27;;;;;;;12.63;8.48;;;12.50;74.70;;;;;;2585879;52;20941;-74
2020/12/20 10:37:55;;;;;;;9.63;6.47;;;12.50;74.60;;;;;;2335529;53;20937;-74
2020/12/20 10:40:25;;;;;;;11.85;8.00;;;12.50;74.60;;;;;;2584670;53;21018;-73
2020/12/20 10:42:51;;;;;;;12.63;8.73;;;12.60;74.70;;;;;;2343364;53;20999;-74
2020/12/20 10:45:18;;;;;;;11.63;7.80;;;12.50;74.60;;;;;;2588773;53;20962;-74
2020/12/20 10:47:44;;;;;;;11.32;7.65;;;12.60;74.70;;;;;;2330031;53;21049;-74
2020/12/20 10:50:15;;;;;;;8.95;6.37;;;12.60;74.80;;;;;;2577165;53;20941;-74
2020/12/20 10:52:42;;;;;;;9.23;5.72;;;12.60;74.90;;;;;;2342246;53;20980;-73
2020/12/20 10:55:08;;;;;;;11.00;7.25;;;12.60;75.00;;;;;;2343076;53;21031;-74
2020/12/20 10:57:35;;;;;;;9.00;5.97;;;12.70;75.10;;;;;;2344125;53;21000;-74
2020/12/20 11:00:02;;;;;;;9.80;6.00;;;12.70;75.00;;;;;;2589538;53;21033;-74
2020/12/20 11:02:28;;;;;;;8.95;5.97;;;12.70;75.00;;;;;;2588814;53;20952;-73
2020/12/20 11:04:56;;;;;;;8.23;5.78;;;12.80;75.10;;;;;;2585805;53;20942;-74
2020/12/20 11:07:24;;;;;;;8.88;6.28;;;12.80;75.20;;;;;;2342384;53;20955;-73
2020/12/20 11:09:51;;;;;;;10.38;6.47;;;12.80;75.30;;;;;;2345059;53;20976;-74
2020/12/20 11:12:20;;;;;;;6.95;5.10;;;12.90;75.60;;;;;;2338428;53;21016;-74
2020/12/20 11:14:47;;;;;;;6.95;4.68;;;12.90;75.70;;;;;;2343107;53;21544;-74
2020/12/20 11:17:13;;;;;;;8.05;5.18;;;13.00;75.90;;;;;;2346620;53;21009;-75
2020/12/20 11:19:41;;;;;;;7.85;4.45;;;13.00;75.90;;;;;;2334047;53;20998;-73
2020/12/20 11:22:08;;;;;;;7.78;4.82;;;13.10;76.70;;;;;;2584567;53;21834;-74
2020/12/20 11:24:35;;;;;;;6.93;4.53;;;13.10;76.20;;;;;;2586390;53;21629;-74
2020/12/20 11:27:04;;;;;;;7.40;4.60;;;13.20;76.50;;;;;;2587936;53;21687;-74
2020/12/20 11:29:30;;;;;;;6.40;3.55;;;13.30;76.40;;;;;;2342653;53;20977;-74
2020/12/20 11:31:57;;;;;;;5.85;4.00;;;13.30;76.20;;;;;;2344513;53;20942;-74
2020/12/20 11:34:23;;;;;;;6.47;4.05;;;13.40;75.90;;;;;;2332850;53;20952;-74
2020/12/20 11:36:50;;;;;;;6.28;3.90;;;13.40;75.50;;;;;;2349639;53;20949;-74
2020/12/20 11:39:22;;;;;;;4.80;3.00;;;13.40;75.30;;;;;;2327914;53;20990;-74
2020/12/20 11:41:49;;;;;;;5.10;2.70;;;13.50;75.10;;;;;;2347235;53;20960;-74
2020/12/20 11:44:16;;;;;;;4.07;2.15;;;13.50;75.10;;;;;;2338394;53;21436;-73
2020/12/20 11:46:43;;;;;;;5.75;2.20;;;13.50;74.90;;;;;;2344876;53;20953;-74
2020/12/20 11:49:10;;;;;;;4.03;2.30;;;13.50;74.80;;;;;;2344524;53;21066;-74
2020/12/20 11:51:36;;;;;;;3.20;1.80;;;13.50;74.80;;;;;;2339549;53;21013;-74
2020/12/20 11:54:04;;;;;;;3.47;1.70;;;13.50;74.80;;;;;;2340708;53;21952;-74
2020/12/20 11:56:31;;;;;;;3.53;2.00;;;13.60;74.90;;;;;;2343388;53;21005;-74
2020/12/20 11:58:57;;;;;;;3.92;2.33;;;13.50;74.70;;;;;;2345440;53;20925;-74
2020/12/20 12:01:27;;;;;;;4.35;2.17;;;13.50;74.70;;;;;;2589021;53;21532;-73
2020/12/20 12:03:53;;;;;;;4.15;1.80;;;13.50;74.60;;;;;;2337944;53;20968;-74
2020/12/20 12:06:20;;;;;;;3.75;1.73;;;13.50;74.70;;;;;;2343844;53;20966;-74
2020/12/20 12:08:47;;;;;;;3.33;1.85;;;13.50;74.70;;;;;;2361921;53;21011;-74
2020/12/20 12:11:19;;;;;;;4.47;2.15;;;13.50;74.70;;;;;;2594348;52;21040;-74
2020/12/20 12:13:46;;;;;;;;;;;13.60;74.70;;;;;;2596905;52;21029;-74
2020/12/20 12:16:19;;;;;;;2.92;1.40;;;13.60;74.00;;;;;;2355362;53;20668;-74
2020/12/20 12:18:50;;;;;;;2.97;1.37;;;13.60;74.60;;;;;;2616698;52;21650;-75
2020/12/20 12:21:16;;;;;;;3.92;1.60;;;13.60;74.50;;;;;;2369205;53;21107;-74
2020/12/20 12:23:44;;;;;;;4.47;1.58;;;13.50;74.40;;;;;;2365312;53;20979;-74
2020/12/20 12:26:10;;;;;;;3.85;1.62;;;13.50;74.30;;;;;;2618486;52;21007;-74
2020/12/20 12:28:40;;;;;;;4.07;1.90;;;13.50;74.30;;;;;;2366638;53;20999;-74
2020/12/20 12:31:07;;;;;;;3.25;1.55;;;13.50;74.30;;;;;;2367376;53;20937;-74
2020/12/20 12:33:34;;;;;;;2.37;1.20;;;13.40;74.30;;;;;;2366075;53;21525;-74
2020/12/20 12:36:00;;;;;;;2.85;1.37;;;13.40;74.30;;;;;;2369252;53;21796;-74
2020/12/20 12:38:27;;;;;;;3.08;1.30;;;13.40;74.40;;;;;;2328387;53;20896;-74
2020/12/20 12:40:53;;;;;;;2.45;1.10;;;13.40;74.40;;;;;;2370484;53;20894;-74
2020/12/20 12:43:20;;;;;;;2.30;1.15;;;13.40;74.40;;;;;;2365477;53;21142;-74
2020/12/20 12:45:47;;;;;;;2.67;1.37;;;13.40;74.50;;;;;;2368897;53;20955;-74
2020/12/20 12:48:19;;;;;;;2.90;1.40;;;13.40;74.50;;;;;;2366670;53;20959;-74
2020/12/20 12:50:46;;;;;;;2.30;1.08;;;13.50;74.60;;;;;;2617606;52;21783;-74
2020/12/20 12:53:13;;;;;;;2.60;1.10;;;13.40;74.60;;;;;;2615778;52;21396;-74
2020/12/20 12:55:39;;;;;;;2.42;0.90;;;13.40;74.70;;;;;;2369652;53;20992;-74
2020/12/20 12:58:05;;;;;;;2.53;0.93;;;13.40;74.80;;;;;;2365523;53;20927;-74